Time;durP1;ratioP1;P1;durP2;ratioP2;P2;SDS_P1;SDS_P2;PMS_P1;PMS_P2;Temp;Humidity;BMP_temperature;BMP_pressure;BME280_temperature;BME280_humidity;BME280_pressure;Samples;Min_cycle;Max_cycle;Signal;HPM_P1;HPM_P2
2023/08/27 00:01:38;;;;;;;7.97;5.27;;;12.50;33.90;;;;;;4988841;28;20831;-52
2023/08/27 00:04:05;;;;;;;9.20;5.37;;;12.50;27.20;;;;;;4988559;28;21076;-51
2023/08/27 00:06:31;;;;;;;6.90;5.27;;;12.50;24.10;;;;;;5007080;28;20457;-52
2023/08/27 00:08:59;;;;;;;9.00;4.60;;;12.40;25.00;;;;;;4995393;28;20500;-52
2023/08/27 00:11:26;;;;;;;6.20;4.40;;;12.30;22.10;;;;;;4998817;28;20535;-51
2023/08/27 00:13:52;;;;;;;5.63;4.60;;;12.30;90.20;;;;;;4998018;28;20491;-53
2023/08/27 00:16:19;;;;;;;10.20;5.10;;;12.20;85.60;;;;;;4990638;28;20572;-51
2023/08/27 00:18:45;;;;;;;5.10;4.30;;;12.30;96.10;;;;;;4989172;28;20514;-53
2023/08/27 00:21:12;;;;;;;4.57;4.10;;;12.40;78.50;;;;;;4989764;28;20456;-51
2023/08/27 00:23:40;;;;;;;7.00;4.50;;;12.30;78.70;;;;;;4990380;28;20468;-53
2023/08/27 00:26:08;;;;;;;7.20;4.60;;;12.40;98.20;;;;;;4992582;28;20939;-52
2023/08/27 00:28:34;;;;;;;5.27;4.73;;;12.20;99.90;;;;;;4982542;28;20542;-51
2023/08/27 00:31:03;;;;;;;4.97;4.33;;;12.20;84.30;;;;;;4989330;28;20490;-52
2023/08/27 00:33:29;;;;;;;4.20;3.87;;;12.20;99.90;;;;;;4988433;28;20832;-51
2023/08/27 00:35:56;;;;;;;5.83;4.53;;;12.10;88.90;;;;;;4990503;28;20874;-52
2023/08/27 00:38:23;;;;;;;5.20;4.40;;;12.10;99.90;;;;;;5001908;28;20539;-53
2023/08/27 00:40:50;;;;;;;11.93;4.20;;;12.10;99.90;;;;;;4999243;28;20491;-52
2023/08/27 00:43:18;;;;;;;5.03;4.50;;;12.10;99.90;;;;;;4998106;28;20471;-52
2023/08/27 00:45:45;;;;;;;6.63;4.60;;;12.10;99.90;;;;;;4985541;28;20568;-53
2023/08/27 00:48:11;;;;;;;5.30;4.43;;;12.10;99.90;;;;;;4985474;28;20460;-52
2023/08/27 00:50:38;;;;;;;7.07;4.90;;;12.10;99.90;;;;;;4990826;28;20460;-51
2023/08/27 00:53:05;;;;;;;6.47;4.10;;;12.10;99.90;;;;;;4999129;28;20978;-52
2023/08/27 00:55:32;;;;;;;7.27;4.87;;;12.10;86.50;;;;;;5009721;28;20455;-53
2023/08/27 00:57:59;;;;;;;4.97;4.27;;;12.00;88.60;;;;;;4991321;28;20970;-54
2023/08/27 01:00:28;;;;;;;5.77;5.17;;;12.20;99.90;;;;;;4991951;28;20460;-53
2023/08/27 01:02:55;;;;;;;4.80;3.97;;;12.20;94.40;;;;;;4984739;28;20491;-52
2023/08/27 01:05:21;;;;;;;5.33;4.20;;;12.10;99.90;;;;;;4995018;28;20511;-52
2023/08/27 01:07:54;;;;;;;6.27;4.30;;;12.10;95.60;;;;;;4993330;28;21294;-51
2023/08/27 01:10:32;;;;;;;14.47;4.30;;;12.10;92.50;;;;;;5005911;28;20460;-52
2023/08/27 01:13:03;;;;;;;5.50;4.10;;;12.00;99.90;;;;;;4989022;28;20471;-51
2023/08/27 01:15:32;;;;;;;4.30;3.90;;;12.00;99.90;;;;;;4987322;28;20574;-52
2023/08/27 01:18:00;;;;;;;7.40;4.13;;;11.80;99.90;;;;;;4993621;28;20864;-51
2023/08/27 01:20:27;;;;;;;6.10;4.90;;;11.80;99.90;;;;;;4990910;28;20498;-51
2023/08/27 01:22:55;;;;;;;9.17;4.13;;;11.80;99.90;;;;;;4993531;28;20479;-52
2023/08/27 01:25:24;;;;;;;8.10;4.03;;;11.90;99.90;;;;;;4992257;28;20488;-52
2023/08/27 01:27:58;;;;;;;4.20;3.60;;;11.70;99.90;;;;;;4990603;28;20508;-52
2023/08/27 01:30:30;;;;;;;3.33;3.13;;;11.80;99.90;;;;;;4993743;28;20486;-51
2023/08/27 01:33:01;;;;;;;5.00;4.40;;;11.80;99.90;;;;;;4992663;28;20495;-53
2023/08/27 01:35:30;;;;;;;5.10;4.27;;;11.90;99.90;;;;;;4994608;28;20460;-52
2023/08/27 01:37:58;;;;;;;4.73;3.63;;;11.90;99.90;;;;;;4996254;28;20527;-53
2023/08/27 01:40:26;;;;;;;4.60;4.20;;;11.90;99.90;;;;;;5003500;28;20534;-51
2023/08/27 01:42:53;;;;;;;4.50;3.80;;;11.90;99.90;;;;;;5004252;28;20469;-52
2023/08/27 01:45:20;;;;;;;5.37;4.13;;;11.90;99.90;;;;;;4989115;28;20788;-52
2023/08/27 01:47:46;;;;;;;4.30;3.63;;;11.80;99.90;;;;;;4998207;28;20894;-51
2023/08/27 01:50:13;;;;;;;3.87;3.57;;;11.80;99.90;;;;;;4996159;28;20558;-52
2023/08/27 01:52:39;;;;;;;11.53;4.00;;;12.00;99.90;;;;;;4988431;28;20491;-51
2023/08/27 01:55:08;;;;;;;5.00;4.10;;;11.90;99.90;;;;;;4988369;28;20495;-51
2023/08/27 01:57:35;;;;;;;7.20;4.80;;;11.90;99.90;;;;;;4991273;28;20602;-52
2023/08/27 02:00:02;;;;;;;5.20;4.17;;;11.90;99.90;;;;;;5000525;28;20464;-52
2023/08/27 02:02:28;;;;;;;4.67;4.23;;;11.80;99.90;;;;;;5000234;28;20521;-53
2023/08/27 02:04:55;;;;;;;7.27;4.33;;;11.70;99.90;;;;;;5001454;28;20580;-52
2023/08/27 02:07:22;;;;;;;7.97;4.03;;;11.70;99.90;;;;;;4987518;28;20493;-52
2023/08/27 02:09:48;;;;;;;7.60;4.03;;;11.80;99.90;;;;;;4990052;28;20965;-53
2023/08/27 02:12:16;;;;;;;4.20;3.90;;;11.80;99.90;;;;;;4990828;28;20868;-52
2023/08/27 02:14:43;;;;;;;5.43;3.37;;;11.80;99.90;;;;;;4987579;28;20554;-52
2023/08/27 02:17:09;;;;;;;4.57;4.13;;;11.80;99.90;;;;;;4992581;28;21073;-51
2023/08/27 02:19:36;;;;;;;5.53;4.40;;;11.80;99.90;;;;;;4996409;28;20468;-52
2023/08/27 02:22:03;;;;;;;7.03;4.10;;;11.70;99.90;;;;;;5000698;28;20492;-52
2023/08/27 02:24:29;;;;;;;8.10;4.70;;;11.70;99.90;;;;;;4992658;28;21084;-51
2023/08/27 02:26:56;;;;;;;4.60;3.83;;;11.70;99.90;;;;;;4987657;28;20488;-51
2023/08/27 02:29:24;;;;;;;6.23;3.53;;;11.70;99.90;;;;;;4989636;28;20520;-51
2023/08/27 02:31:50;;;;;;;3.87;3.23;;;11.80;99.90;;;;;;4992711;28;20461;-51
2023/08/27 02:34:17;;;;;;;3.57;3.27;;;11.80;99.90;;;;;;5006210;28;20537;-52
2023/08/27 02:36:43;;;;;;;6.23;4.10;;;11.80;99.90;;;;;;5001850;28;20484;-51
2023/08/27 02:39:11;;;;;;;5.10;4.33;;;11.90;99.90;;;;;;5003431;28;20538;-52
2023/08/27 02:41:37;;;;;;;5.40;4.17;;;11.80;99.90;;;;;;5004956;28;20491;-52
2023/08/27 02:44:04;;;;;;;4.57;3.83;;;11.80;99.90;;;;;;4988529;28;20496;-51
2023/08/27 02:46:32;;;;;;;6.70;3.90;;;11.70;99.90;;;;;;4992524;28;20465;-52
2023/08/27 02:48:59;;;;;;;5.90;4.17;;;11.70;99.90;;;;;;4992067;28;20520;-52
2023/08/27 02:51:25;;;;;;;5.67;4.00;;;11.80;99.90;;;;;;5001246;28;20460;-51
2023/08/27 02:53:52;;;;;;;3.90;3.30;;;11.80;99.90;;;;;;4999607;28;20539;-51
2023/08/27 02:56:19;;;;;;;13.20;3.60;;;11.90;99.90;;;;;;4998747;28;20534;-52
2023/08/27 02:58:48;;;;;;;5.50;4.07;;;11.90;99.90;;;;;;4994045;28;20884;-52
2023/08/27 03:01:18;;;;;;;4.77;4.37;;;11.90;99.90;;;;;;5008345;28;20538;-51
2023/08/27 03:03:46;;;;;;;4.70;4.30;;;11.90;99.90;;;;;;5005451;28;20485;-52
2023/08/27 03:06:13;;;;;;;5.20;4.20;;;11.90;99.90;;;;;;5003079;28;20582;-52
2023/08/27 03:08:39;;;;;;;5.77;4.77;;;11.90;99.90;;;;;;4996618;28;20965;-52
2023/08/27 03:11:06;;;;;;;5.80;4.73;;;12.00;99.90;;;;;;5010473;28;20436;-51
2023/08/27 03:13:33;;;;;;;3.77;3.47;;;11.80;99.90;;;;;;4998646;28;20524;-53
2023/08/27 03:15:59;;;;;;;4.93;4.10;;;11.70;99.90;;;;;;4986045;28;20556;-51
2023/08/27 03:18:29;;;;;;;5.80;4.00;;;11.70;99.90;;;;;;4991462;28;21065;-51
2023/08/27 03:20:57;;;;;;;4.60;3.90;;;11.80;99.90;;;;;;4990574;28;20472;-53
2023/08/27 03:23:23;;;;;;;5.40;4.10;;;11.70;99.90;;;;;;4993313;28;20495;-51
2023/08/27 03:25:50;;;;;;;4.50;4.10;;;11.70;99.90;;;;;;4990758;28;20958;-53
2023/08/27 03:28:17;;;;;;;8.80;4.60;;;11.70;99.90;;;;;;4990643;28;20498;-50
2023/08/27 03:30:43;;;;;;;6.93;3.60;;;11.80;99.90;;;;;;5000128;28;20554;-49
2023/08/27 03:33:10;;;;;;;4.90;3.63;;;11.70;99.90;;;;;;4988298;28;20461;-49
2023/08/27 03:35:37;;;;;;;3.87;3.57;;;11.80;99.90;;;;;;4993084;28;20542;-49
2023/08/27 03:38:05;;;;;;;4.60;4.20;;;11.80;99.90;;;;;;4999060;28;20680;-50
2023/08/27 03:40:31;;;;;;;5.23;3.80;;;11.80;99.90;;;;;;4991254;28;20527;-55
2023/08/27 03:42:58;;;;;;;8.23;4.10;;;11.80;99.90;;;;;;5010581;28;20464;-50
2023/08/27 03:45:25;;;;;;;6.47;4.27;;;11.80;99.90;;;;;;4998769;28;20480;-51
2023/08/27 03:47:51;;;;;;;5.00;3.57;;;11.90;99.90;;;;;;4994684;28;20448;-51
2023/08/27 03:50:18;;;;;;;4.40;3.90;;;11.90;99.90;;;;;;4995680;28;20556;-50
2023/08/27 03:52:44;;;;;;;5.23;3.80;;;11.90;99.90;;;;;;5001044;28;20533;-50
2023/08/27 03:55:12;;;;;;;4.13;3.73;;;11.90;99.90;;;;;;4996616;28;20994;-50
2023/08/27 03:57:39;;;;;;;5.40;3.57;;;11.90;99.90;;;;;;4989362;28;20480;-49
2023/08/27 04:00:07;;;;;;;6.40;4.20;;;11.80;99.90;;;;;;5007813;28;20444;-51
2023/08/27 04:02:34;;;;;;;3.50;3.20;;;11.90;99.90;;;;;;4984836;28;20499;-50
2023/08/27 04:05:01;;;;;;;4.67;4.10;;;11.90;99.90;;;;;;4987325;28;20581;-50
2023/08/27 04:07:27;;;;;;;3.93;3.60;;;11.90;99.90;;;;;;4992351;28;20464;-50
2023/08/27 04:09:54;;;;;;;4.33;3.93;;;11.90;99.90;;;;;;5002005;28;20464;-50
2023/08/27 04:12:22;;;;;;;4.90;4.03;;;11.80;99.90;;;;;;4994385;28;20543;-51
2023/08/27 04:14:48;;;;;;;4.43;3.90;;;11.80;99.90;;;;;;4997462;28;20508;-50
2023/08/27 04:17:15;;;;;;;5.10;3.40;;;11.80;99.90;;;;;;4993947;28;20508;-51
2023/08/27 04:19:41;;;;;;;4.30;3.90;;;11.80;99.90;;;;;;5003057;28;20459;-50
2023/08/27 04:22:08;;;;;;;4.70;3.70;;;11.80;99.90;;;;;;4992843;28;20984;-50
2023/08/27 04:24:35;;;;;;;4.37;3.97;;;11.80;99.90;;;;;;4987381;28;20498;-50
2023/08/27 04:27:01;;;;;;;6.30;4.50;;;11.80;99.90;;;;;;4995536;28;20535;-50
2023/08/27 04:29:29;;;;;;;5.30;4.30;;;11.70;99.90;;;;;;4999274;28;20515;-49
2023/08/27 04:31:56;;;;;;;4.23;3.83;;;11.80;99.90;;;;;;4994632;28;20455;-49
2023/08/27 04:34:22;;;;;;;5.43;4.40;;;11.80;99.90;;;;;;5001136;28;21034;-49
2023/08/27 04:36:49;;;;;;;4.60;4.20;;;11.80;99.90;;;;;;4995577;28;20511;-50
2023/08/27 04:39:15;;;;;;;4.63;4.13;;;11.80;99.90;;;;;;4991361;28;20468;-49
2023/08/27 04:41:42;;;;;;;4.33;3.90;;;11.90;99.90;;;;;;4998762;28;20487;-49
2023/08/27 04:44:09;;;;;;;6.60;4.63;;;12.00;99.90;;;;;;4998349;28;20500;-50
2023/08/27 04:46:37;;;;;;;5.40;4.00;;;12.00;99.90;;;;;;5002899;28;20464;-49
2023/08/27 04:49:03;;;;;;;8.33;4.83;;;12.00;99.90;;;;;;5001752;28;20466;-51
2023/08/27 04:51:30;;;;;;;6.13;4.37;;;11.90;99.90;;;;;;4996812;28;20462;-50
2023/08/27 04:53:57;;;;;;;15.83;4.57;;;11.90;99.90;;;;;;4993290;28;20520;-49
2023/08/27 04:56:23;;;;;;;5.30;4.20;;;11.90;99.90;;;;;;4994130;28;20496;-50
2023/08/27 04:58:50;;;;;;;8.70;5.13;;;12.00;99.90;;;;;;5004168;28;20569;-49
2023/08/27 05:01:16;;;;;;;8.73;4.23;;;12.10;99.90;;;;;;5001124;28;20500;-50
2023/08/27 05:03:44;;;;;;;5.07;4.30;;;12.10;99.90;;;;;;4997600;28;21032;-50
2023/08/27 05:06:11;;;;;;;7.53;4.37;;;12.20;99.90;;;;;;4997155;28;20931;-50
2023/08/27 05:08:37;;;;;;;4.67;4.20;;;12.20;99.90;;;;;;4989281;28;20488;-51
2023/08/27 05:11:04;;;;;;;7.15;4.88;;;12.30;99.90;;;;;;4992331;28;20495;-50
2023/08/27 05:13:31;;;;;;;8.83;5.70;;;12.30;99.90;;;;;;4991178;28;20608;-50
2023/08/27 05:15:57;;;;;;;6.40;5.03;;;12.30;99.90;;;;;;5004094;28;20460;-50
2023/08/27 05:18:24;;;;;;;5.53;4.83;;;12.40;99.90;;;;;;4996838;28;20477;-51
2023/08/27 05:20:52;;;;;;;6.47;4.77;;;12.40;99.90;;;;;;4988315;28;20468;-49
2023/08/27 05:23:21;;;;;;;10.43;5.10;;;12.50;99.90;;;;;;5002316;28;20977;-50
2023/08/27 05:25:48;;;;;;;9.10;5.10;;;12.50;99.90;;;;;;5004887;28;20487;-52
2023/08/27 05:28:15;;;;;;;5.33;4.83;;;12.50;99.90;;;;;;4989580;28;20522;-51
2023/08/27 05:30:42;;;;;;;7.97;4.47;;;12.50;99.90;;;;;;4999005;28;20491;-51
2023/08/27 05:33:08;;;;;;;5.00;4.23;;;12.60;99.90;;;;;;4994524;28;20547;-50
2023/08/27 05:35:35;;;;;;;6.00;4.60;;;12.70;99.90;;;;;;5004478;28;20502;-51
2023/08/27 05:38:03;;;;;;;5.10;4.60;;;12.70;99.90;;;;;;5003795;28;20487;-51
2023/08/27 05:40:30;;;;;;;5.30;4.50;;;12.80;99.90;;;;;;4997271;28;20464;-50
2023/08/27 05:42:57;;;;;;;5.30;4.80;;;12.80;99.90;;;;;;4990850;28;20978;-51
2023/08/27 05:45:23;;;;;;;6.10;4.60;;;12.90;99.90;;;;;;4980722;28;20523;-52
2023/08/27 05:47:50;;;;;;;4.97;4.57;;;13.00;99.90;;;;;;4985306;28;20536;-50
2023/08/27 05:50:16;;;;;;;5.87;5.13;;;13.10;99.90;;;;;;5004022;28;20468;-49
2023/08/27 05:52:43;;;;;;;7.03;5.20;;;13.20;99.90;;;;;;5002603;28;20903;-51
2023/08/27 05:55:11;;;;;;;5.40;4.90;;;13.30;99.90;;;;;;4996115;28;20852;-50
2023/08/27 05:57:38;;;;;;;7.20;4.90;;;13.40;99.90;;;;;;4994071;28;20492;-50
2023/08/27 06:00:05;;;;;;;6.57;4.80;;;13.50;99.90;;;;;;4999251;28;20468;-50
2023/08/27 06:02:33;;;;;;;7.10;4.87;;;13.70;99.90;;;;;;4988747;28;20471;-51
2023/08/27 06:05:00;;;;;;;5.80;4.93;;;13.80;99.90;;;;;;4990339;28;20480;-51
2023/08/27 06:07:26;;;;;;;7.33;5.47;;;13.90;99.90;;;;;;5006430;28;20559;-50
2023/08/27 06:09:53;;;;;;;8.20;5.30;;;14.00;99.90;;;;;;4989495;28;20464;-50
2023/08/27 06:12:21;;;;;;;7.63;5.40;;;14.10;99.90;;;;;;4995496;28;20492;-49
2023/08/27 06:14:47;;;;;;;7.53;5.33;;;14.20;99.90;;;;;;4990417;28;20512;-50
2023/08/27 06:17:14;;;;;;;5.20;4.70;;;14.30;99.90;;;;;;4995036;28;20500;-51
2023/08/27 06:19:40;;;;;;;8.53;5.30;;;14.50;99.90;;;;;;4987111;28;20492;-50
2023/08/27 06:22:07;;;;;;;7.73;5.23;;;14.60;99.90;;;;;;4994475;28;20527;-50
2023/08/27 06:24:34;;;;;;;9.00;4.83;;;14.70;99.90;;;;;;4997041;28;20489;-52
2023/08/27 06:27:00;;;;;;;9.07;4.87;;;14.80;99.90;;;;;;4994981;28;20465;-51
2023/08/27 06:29:28;;;;;;;7.50;5.07;;;14.90;99.90;;;;;;4988454;28;20526;-50
2023/08/27 06:31:55;;;;;;;7.40;5.00;;;15.00;99.90;;;;;;4993192;28;20473;-53
2023/08/27 06:34:21;;;;;;;10.77;4.93;;;15.10;99.90;;;;;;4993835;28;20567;-51
2023/08/27 06:36:48;;;;;;;6.73;5.33;;;15.20;99.90;;;;;;4988587;28;20966;-52
2023/08/27 06:39:14;;;;;;;8.60;5.00;;;15.30;99.90;;;;;;5000973;28;20992;-51
2023/08/27 06:41:41;;;;;;;7.90;5.37;;;15.40;99.90;;;;;;5004466;28;20874;-52
2023/08/27 06:44:08;;;;;;;6.70;4.87;;;15.50;99.90;;;;;;4989805;28;20496;-52
2023/08/27 06:46:36;;;;;;;9.20;4.90;;;15.60;99.90;;;;;;4993578;28;20506;-51
2023/08/27 06:49:02;;;;;;;5.83;4.33;;;15.70;96.30;;;;;;4993394;28;20518;-51
2023/08/27 06:51:29;;;;;;;6.00;4.30;;;15.80;90.50;;;;;;4991624;28;20476;-51
2023/08/27 06:53:55;;;;;;;6.40;4.80;;;15.90;92.20;;;;;;4982901;28;20853;-52
2023/08/27 06:56:22;;;;;;;15.40;4.50;;;16.00;87.20;;;;;;4997557;28;20476;-51
2023/08/27 06:58:49;;;;;;;5.90;4.53;;;16.10;72.40;;;;;;4983305;28;20488;-49
2023/08/27 07:01:15;;;;;;;6.20;5.00;;;16.20;22.10;;;;;;4987486;28;20467;-50
2023/08/27 07:03:43;;;;;;;6.10;4.67;;;16.40;26.40;;;;;;4991140;28;20804;-51
2023/08/27 07:06:10;;;;;;;5.53;3.60;;;16.50;28.50;;;;;;4988133;28;20535;-50
2023/08/27 07:08:37;;;;;;;5.33;4.13;;;16.60;39.30;;;;;;4994014;28;20549;-51
2023/08/27 07:11:03;;;;;;;5.63;3.70;;;16.70;45.80;;;;;;4989507;28;20497;-51
2023/08/27 07:13:30;;;;;;;4.53;3.30;;;16.80;56.70;;;;;;5003783;28;20463;-51
2023/08/27 07:15:57;;;;;;;5.23;3.80;;;16.80;69.00;;;;;;4995472;28;20466;-52
2023/08/27 07:18:24;;;;;;;5.87;3.47;;;16.90;77.70;;;;;;4988810;28;20477;-50
2023/08/27 07:20:52;;;;;;;3.23;2.93;;;17.00;80.20;;;;;;4985555;28;20456;-51
2023/08/27 07:23:19;;;;;;;5.73;3.27;;;17.10;85.00;;;;;;4990487;28;20465;-51
2023/08/27 07:25:46;;;;;;;3.40;3.10;;;17.20;89.20;;;;;;4987305;28;20495;-51
2023/08/27 07:28:12;;;;;;;7.87;3.73;;;17.20;92.20;;;;;;4989445;28;20459;-49
2023/08/27 07:30:39;;;;;;;3.43;2.93;;;17.40;92.10;;;;;;4999523;28;20938;-51
2023/08/27 07:33:06;;;;;;;7.73;3.60;;;17.50;96.30;;;;;;5000817;28;20812;-52
2023/08/27 07:35:33;;;;;;;3.13;2.87;;;17.60;96.70;;;;;;4986626;28;20488;-50
2023/08/27 07:38:01;;;;;;;7.97;2.90;;;17.60;99.90;;;;;;4995198;28;20483;-53
2023/08/27 07:40:27;;;;;;;3.93;2.60;;;17.70;99.90;;;;;;4994041;28;20465;-50
2023/08/27 07:42:54;;;;;;;4.30;2.80;;;17.70;99.90;;;;;;5000969;28;20462;-50
2023/08/27 07:45:21;;;;;;;3.63;2.60;;;17.70;99.90;;;;;;4996341;28;21083;-50
2023/08/27 07:47:48;;;;;;;9.30;2.90;;;17.80;99.90;;;;;;4991015;28;20484;-50
2023/08/27 07:50:14;;;;;;;3.27;2.37;;;17.80;99.90;;;;;;4985334;28;20465;-51
2023/08/27 07:52:41;;;;;;;4.57;2.97;;;17.80;99.90;;;;;;4987989;28;20460;-50
2023/08/27 07:55:09;;;;;;;3.37;2.73;;;17.90;99.90;;;;;;4984287;28;20476;-51
2023/08/27 07:57:36;;;;;;;4.43;3.03;;;17.90;99.90;;;;;;4992361;28;20526;-51
2023/08/27 08:00:03;;;;;;;4.93;2.90;;;17.90;99.90;;;;;;4991110;28;20880;-50
2023/08/27 08:02:30;;;;;;;4.07;2.70;;;18.00;99.90;;;;;;4987033;28;20548;-51
2023/08/27 08:04:57;;;;;;;4.10;2.90;;;18.00;99.90;;;;;;4990477;28;20512;-50
2023/08/27 08:07:23;;;;;;;8.77;3.17;;;18.10;99.90;;;;;;4996182;28;20757;-51
2023/08/27 08:09:50;;;;;;;5.07;3.13;;;18.10;99.90;;;;;;4989232;28;20558;-51
2023/08/27 08:12:18;;;;;;;7.40;3.03;;;18.20;99.90;;;;;;4987853;28;20496;-49
2023/08/27 08:14:45;;;;;;;6.77;3.00;;;18.20;99.90;;;;;;4992325;28;20986;-52
2023/08/27 08:17:11;;;;;;;8.20;2.70;;;18.30;99.90;;;;;;4994233;28;20515;-49
2023/08/27 08:19:38;;;;;;;3.30;2.83;;;18.30;99.90;;;;;;4989709;28;21013;-52
2023/08/27 08:22:05;;;;;;;3.90;2.47;;;18.40;99.90;;;;;;4990151;28;20518;-50
2023/08/27 08:24:32;;;;;;;8.67;3.03;;;18.40;99.90;;;;;;5002155;28;20472;-50
2023/08/27 08:27:02;;;;;;;8.60;3.30;;;18.50;99.90;;;;;;5002334;28;20515;-50
2023/08/27 08:29:32;;;;;;;3.07;2.77;;;18.50;99.90;;;;;;4984637;28;20460;-51
2023/08/27 08:31:59;;;;;;;11.80;3.50;;;18.50;99.90;;;;;;5006668;28;20463;-51
2023/08/27 08:34:28;;;;;;;7.53;3.10;;;18.40;99.90;;;;;;4989383;28;20570;-51
2023/08/27 08:36:55;;;;;;;6.63;2.90;;;18.40;99.90;;;;;;4990444;28;20460;-49
2023/08/27 08:39:23;;;;;;;4.33;3.07;;;18.40;99.90;;;;;;4994171;28;20854;-50
2023/08/27 08:41:55;;;;;;;6.37;2.60;;;18.50;99.90;;;;;;5004233;28;20841;-55
2023/08/27 08:44:27;;;;;;;7.53;2.90;;;18.60;99.90;;;;;;4995772;28;20558;-52
2023/08/27 08:46:56;;;;;;;4.97;2.90;;;18.70;99.90;;;;;;4991622;28;20495;-53
2023/08/27 08:49:25;;;;;;;3.70;2.90;;;18.70;99.90;;;;;;4993343;28;20456;-51
2023/08/27 08:51:58;;;;;;;7.70;3.83;;;18.70;99.90;;;;;;4980835;28;20519;-54
2023/08/27 08:54:28;;;;;;;5.17;3.17;;;18.70;99.90;;;;;;4992805;28;20569;-52
2023/08/27 08:57:00;;;;;;;6.20;3.40;;;18.70;99.90;;;;;;4983868;28;20453;-54
2023/08/27 08:59:29;;;;;;;4.57;3.57;;;18.80;99.90;;;;;;4986078;28;20488;-53
2023/08/27 09:01:57;;;;;;;7.93;3.93;;;18.80;99.90;;;;;;4985730;28;20823;-52
2023/08/27 09:04:25;;;;;;;5.33;4.00;;;18.90;99.90;;;;;;4984463;28;20589;-53
2023/08/27 09:06:53;;;;;;;5.13;4.30;;;19.00;99.90;;;;;;4986033;28;20469;-52
2023/08/27 09:09:21;;;;;;;4.47;3.80;;;19.20;99.90;;;;;;4985056;28;20535;-55
2023/08/27 09:11:50;;;;;;;3.70;3.40;;;19.40;99.90;;;;;;4979854;28;20586;-52
2023/08/27 09:14:17;;;;;;;6.70;4.00;;;19.60;99.90;;;;;;4984138;28;20484;-53
2023/08/27 09:16:44;;;;;;;10.53;3.43;;;19.70;99.90;;;;;;4989791;28;20469;-53
2023/08/27 09:19:12;;;;;;;5.50;3.80;;;19.80;99.90;;;;;;4995219;28;20484;-51
2023/08/27 09:21:38;;;;;;;6.10;3.60;;;19.80;99.90;;;;;;4990220;28;20491;-51
2023/08/27 09:24:06;;;;;;;4.53;2.80;;;19.60;99.90;;;;;;4986158;28;20481;-55
2023/08/27 09:26:32;;;;;;;6.43;3.30;;;19.70;99.90;;;;;;4983538;28;20460;-55
2023/08/27 09:29:01;;;;;;;4.30;2.87;;;19.70;99.90;;;;;;4988536;28;20527;-55
2023/08/27 09:31:37;;;;;;;5.77;3.30;;;19.70;99.90;;;;;;4996651;28;20496;-52
2023/08/27 09:34:04;;;;;;;7.83;2.70;;;19.80;99.90;;;;;;4989470;28;20562;-55
2023/08/27 09:36:34;;;;;;;6.33;3.17;;;19.80;99.90;;;;;;4992160;28;20461;-55
2023/08/27 09:39:09;;;;;;;6.13;2.67;;;19.90;99.90;;;;;;4990988;28;20504;-55
2023/08/27 09:41:38;;;;;;;5.90;2.87;;;19.80;46.10;;;;;;4991387;28;20460;-53
2023/08/27 09:44:06;;;;;;;2.90;2.60;;;19.80;52.70;;;;;;4997028;28;20843;-54
2023/08/27 09:46:32;;;;;;;4.47;3.17;;;19.80;60.10;;;;;;5045965;22;20497;-53
2023/08/27 09:49:00;;;;;;;3.10;2.30;;;19.80;54.10;;;;;;5033930;28;20590;-52
2023/08/27 09:51:28;;;;;;;2.93;2.23;;;19.90;60.10;;;;;;5022289;28;20975;-52
2023/08/27 09:53:56;;;;;;;8.17;2.60;;;19.90;40.60;;;;;;5028260;28;20530;-52
2023/08/27 09:56:24;;;;;;;7.57;2.90;;;20.00;54.90;;;;;;5032023;28;20582;-51
2023/08/27 09:58:51;;;;;;;4.57;2.67;;;19.90;66.20;;;;;;5039720;28;20570;-53
2023/08/27 10:01:18;;;;;;;4.23;3.00;;;20.00;56.80;;;;;;5026806;28;20459;-53
2023/08/27 10:03:46;;;;;;;4.67;2.50;;;20.00;68.90;;;;;;5031954;28;20508;-51
2023/08/27 10:06:13;;;;;;;5.80;2.50;;;20.10;66.70;;;;;;5032227;28;20506;-53
2023/08/27 10:08:47;;;;;;;10.23;2.73;;;20.20;61.30;;;;;;5021375;28;20510;-52
2023/08/27 10:11:17;;;;;;;6.20;2.50;;;20.20;67.50;;;;;;5036107;28;20564;-53
2023/08/27 10:13:45;;;;;;;3.60;2.50;;;20.30;68.80;;;;;;5043932;28;20809;-51
2023/08/27 10:16:12;;;;;;;3.40;2.10;;;20.20;72.10;;;;;;5015708;28;20459;-53
2023/08/27 10:18:39;;;;;;;5.40;2.20;;;20.20;77.40;;;;;;5034963;28;20490;-51
2023/08/27 10:21:07;;;;;;;5.50;2.40;;;20.20;64.90;;;;;;5026116;28;20495;-51
2023/08/27 10:23:34;;;;;;;4.83;3.10;;;20.20;75.10;;;;;;5035113;28;20474;-52
2023/08/27 10:26:03;;;;;;;5.67;3.03;;;20.10;93.80;;;;;;5018161;28;21005;-52
2023/08/27 10:28:32;;;;;;;5.83;2.30;;;20.10;85.80;;;;;;5020238;28;20459;-52
2023/08/27 10:30:59;;;;;;;6.90;2.30;;;20.10;87.80;;;;;;5023021;28;20493;-52
2023/08/27 10:33:26;;;;;;;5.90;2.50;;;20.20;86.30;;;;;;5039257;28;20465;-52
2023/08/27 10:35:54;;;;;;;5.40;2.83;;;20.20;95.90;;;;;;5027389;28;21283;-53
2023/08/27 10:38:22;;;;;;;4.33;2.50;;;20.20;94.40;;;;;;5031878;28;20516;-51
2023/08/27 10:40:51;;;;;;;2.40;1.97;;;20.20;95.20;;;;;;5026914;28;20496;-52
2023/08/27 10:43:19;;;;;;;6.03;2.73;;;20.20;95.80;;;;;;5023691;28;20455;-52
2023/08/27 10:45:48;;;;;;;4.10;2.20;;;20.30;95.90;;;;;;5024684;28;20523;-52
2023/08/27 10:48:25;;;;;;;4.03;2.00;;;20.30;99.90;;;;;;5015130;28;20521;-52
2023/08/27 10:50:55;;;;;;;13.63;2.33;;;20.30;96.00;;;;;;5027416;28;20454;-52
2023/08/27 10:53:22;;;;;;;3.93;2.90;;;20.40;99.90;;;;;;5037914;28;21000;-52
2023/08/27 10:55:51;;;;;;;5.03;2.07;;;20.40;99.90;;;;;;5036182;28;20585;-52
2023/08/27 10:58:20;;;;;;;4.13;1.93;;;20.40;99.90;;;;;;5028175;28;20550;-52
2023/08/27 11:01:09;;;;;;;7.83;2.60;;;20.40;99.90;;;;;;5026941;28;20510;-52
2023/08/27 11:03:57;;;;;;;5.37;2.30;;;20.50;99.90;;;;;;5024893;28;20477;-51
2023/08/27 11:06:44;;;;;;;2.53;2.00;;;20.40;99.90;;;;;;5037187;28;20564;-52
2023/08/27 11:09:20;;;;;;;5.93;2.10;;;20.40;99.90;;;;;;5026453;28;20508;-51
2023/08/27 11:11:50;;;;;;;3.70;2.40;;;20.40;99.90;;;;;;5029450;28;20850;-53
2023/08/27 11:14:17;;;;;;;4.33;2.00;;;20.40;99.90;;;;;;5025371;28;20463;-52
2023/08/27 11:16:46;;;;;;;2.90;2.07;;;20.40;99.90;;;;;;5034915;28;20991;-52
2023/08/27 11:19:13;;;;;;;2.80;2.20;;;20.40;99.90;;;;;;5023892;28;20492;-53
2023/08/27 11:21:41;;;;;;;2.43;2.23;;;20.40;99.90;;;;;;5020753;28;20501;-52
2023/08/27 11:24:15;;;;;;;2.93;2.03;;;20.40;99.90;;;;;;5028211;28;20943;-52
2023/08/27 11:26:43;;;;;;;5.97;2.30;;;20.40;99.90;;;;;;5016649;28;20999;-52
2023/08/27 11:29:10;;;;;;;5.30;2.40;;;20.40;99.90;;;;;;5024144;28;20512;-52
2023/08/27 11:31:39;;;;;;;2.23;2.03;;;20.30;99.90;;;;;;5023596;28;20466;-52
2023/08/27 11:34:08;;;;;;;3.30;2.00;;;20.30;99.90;;;;;;5025459;28;20978;-52
2023/08/27 11:36:35;;;;;;;5.30;1.93;;;20.20;99.90;;;;;;5027745;28;20514;-52
2023/08/27 11:39:05;;;;;;;3.03;1.83;;;20.20;99.90;;;;;;5027476;28;20467;-52
2023/08/27 11:41:36;;;;;;;2.43;1.93;;;20.10;99.90;;;;;;5035894;28;20459;-52
2023/08/27 11:44:04;;;;;;;3.23;1.93;;;20.10;99.90;;;;;;5020070;28;20471;-52
2023/08/27 11:46:31;;;;;;;3.17;2.23;;;20.10;99.90;;;;;;5023648;28;20552;-52
2023/08/27 11:48:58;;;;;;;2.07;1.97;;;20.10;99.90;;;;;;5020603;28;20528;-53
2023/08/27 11:51:26;;;;;;;7.90;2.20;;;20.10;99.90;;;;;;5029421;28;20490;-53
2023/08/27 11:53:53;;;;;;;3.17;2.50;;;20.20;99.90;;;;;;5026887;28;20458;-52
2023/08/27 11:56:19;;;;;;;15.67;2.67;;;20.20;99.90;;;;;;5030579;28;20478;-52
2023/08/27 11:58:50;;;;;;;2.30;2.03;;;20.20;99.90;;;;;;5030646;28;20495;-52
2023/08/27 12:01:16;;;;;;;3.77;2.00;;;20.20;99.90;;;;;;5032475;28;20451;-52
2023/08/27 12:03:43;;;;;;;4.37;2.43;;;20.20;99.90;;;;;;5037748;28;20495;-52
2023/08/27 12:06:17;;;;;;;5.77;2.10;;;20.20;99.90;;;;;;5042563;28;20532;-51
2023/08/27 12:08:49;;;;;;;12.43;2.30;;;20.20;99.90;;;;;;5028421;28;20860;-52
2023/08/27 12:11:17;;;;;;;2.33;1.90;;;20.20;99.90;;;;;;5025683;28;20944;-52
2023/08/27 12:13:47;;;;;;;2.33;2.00;;;20.20;99.90;;;;;;5033402;28;21086;-52
2023/08/27 12:16:14;;;;;;;3.90;2.37;;;20.30;99.90;;;;;;5025627;28;20478;-52
2023/08/27 12:18:44;;;;;;;4.30;2.23;;;20.30;99.90;;;;;;5028858;28;20489;-52
2023/08/27 12:21:11;;;;;;;3.30;2.53;;;20.20;99.90;;;;;;5023111;28;20533;-51
2023/08/27 12:23:38;;;;;;;4.10;1.90;;;20.20;99.90;;;;;;5020333;28;20961;-51
2023/08/27 12:26:06;;;;;;;5.47;2.00;;;20.20;99.90;;;;;;5035923;28;20481;-51
2023/08/27 12:28:33;;;;;;;10.50;1.80;;;20.20;99.90;;;;;;5029851;28;20533;-51
2023/08/27 12:31:00;;;;;;;3.20;1.97;;;20.10;99.90;;;;;;5011256;28;20478;-51
2023/08/27 12:33:39;;;;;;;4.23;1.90;;;20.10;99.90;;;;;;5012593;28;20490;-51
2023/08/27 12:36:06;;;;;;;4.83;2.10;;;20.20;99.90;;;;;;5023016;28;20512;-52
2023/08/27 12:38:33;;;;;;;3.10;1.93;;;20.20;99.90;;;;;;5026644;28;20455;-52
2023/08/27 12:41:00;;;;;;;6.17;2.20;;;20.10;99.90;;;;;;5024559;28;20857;-52
2023/08/27 12:43:28;;;;;;;4.17;2.53;;;20.10;99.90;;;;;;5032008;28;20463;-52
2023/08/27 12:45:55;;;;;;;4.17;2.20;;;20.10;99.90;;;;;;5036295;28;20544;-51
2023/08/27 12:48:22;;;;;;;3.43;2.03;;;20.00;99.90;;;;;;5029471;28;20967;-52